Terminal Aerodrome Forecast
Issued by NWS

Home | Current Version | Previous Version | Graphics & Text | Print | Product List | Glossary On
Versions: 1 2 3 4 5 6 7 8 9 10 11 12 13 14 15 16 17 18 19 20 21 22 23 24 25 26 27
000
FTUS45 KGGW 251400 AAA
TAFOLF
TAF AMD
KOLF 251449Z 2515/2612 30010KT P6SM VCSH SCT025 OVC050
      TEMPO 2515/2516 -SHRA BKN025
     FM251800 30010KT P6SM BKN050
     FM260000 VRB05KT P6SM SCT090
     FM260900 00000KT 1/4SM FG VV001=

USA.gov is the U.S. government's official web portal to all federal, state and local government web resources and services.